createdAt,value
2023-03-13T00:03:36.480Z,23.58
2023-03-13T00:08:42.842Z,15.40
2023-03-13T00:13:47.260Z,12.52
2023-03-13T00:18:52.996Z,16.98
2023-03-13T00:23:56.795Z,13.88
2023-03-13T00:28:59.748Z,12.05
2023-03-13T00:34:04.966Z,11.63
2023-03-13T00:39:07.736Z,14.05
2023-03-13T00:44:31.132Z,15.10
2023-03-13T00:49:35.865Z,156.73
2023-03-13T00:54:43.434Z,92.43
2023-03-13T00:59:46.744Z,35.33
2023-03-13T01:04:50.157Z,15.65
2023-03-13T01:09:53.411Z,11.47
2023-03-13T01:14:58.818Z,10.63
2023-03-13T01:20:01.683Z,10.45
2023-03-13T01:25:09.033Z,12.05
2023-03-13T01:30:12.289Z,9.27
2023-03-13T01:35:15.607Z,10.10
2023-03-13T01:40:18.497Z,9.60
2023-03-13T01:45:54.765Z,10.17
2023-03-13T01:51:02.298Z,9.50
2023-03-13T01:56:09.957Z,9.13
2023-03-13T02:01:15.971Z,10.40
2023-03-13T02:06:20.378Z,10.32
2023-03-13T02:11:36.175Z,10.60
2023-03-13T02:16:39.997Z,12.90
2023-03-13T02:22:12.106Z,12.93
2023-03-13T02:27:17.834Z,9.25
2023-03-13T02:32:22.520Z,9.60
2023-03-13T02:37:26.362Z,7.82
2023-03-13T02:42:31.265Z,6.45
2023-03-13T02:47:41.323Z,6.43
2023-03-13T02:52:47.465Z,7.95
2023-03-13T02:57:52.084Z,6.97
2023-03-13T03:02:56.232Z,5.05
2023-03-13T03:07:59.301Z,5.60
2023-03-13T03:13:04.031Z,4.30
2023-03-13T03:18:08.066Z,4.22
2023-03-13T03:23:11.003Z,4.00
2023-03-13T03:28:18.147Z,3.27
2023-03-13T03:33:26.032Z,3.72
2023-03-13T03:38:36.050Z,3.95
2023-03-13T03:43:38.989Z,4.00
2023-03-13T03:48:43.931Z,3.90
2023-03-13T03:53:50.519Z,4.05
2023-03-13T03:58:54.244Z,4.10
2023-03-13T04:04:04.520Z,4.03
2023-03-13T04:09:08.586Z,3.97
2023-03-13T04:14:13.223Z,4.30
2023-03-13T04:19:16.340Z,4.40
2023-03-13T04:24:19.662Z,5.35
2023-03-13T04:29:22.556Z,7.07
2023-03-13T04:34:36.203Z,7.13
2023-03-13T04:39:41.788Z,6.97
2023-03-13T04:44:57.774Z,8.63
2023-03-13T04:50:33.487Z,7.60
2023-03-13T04:55:58.813Z,7.43
2023-03-13T05:01:22.126Z,8.03
2023-03-13T05:06:40.071Z,6.97
2023-03-13T05:12:12.907Z,7.53
2023-03-13T05:17:35.941Z,7.35
2023-03-13T05:22:57.312Z,7.28
2023-03-13T05:28:23.446Z,6.47
2023-03-13T05:33:43.353Z,6.53
2023-03-13T05:39:01.606Z,7.22
2023-03-13T05:44:36.563Z,13.30
2023-03-13T05:49:58.235Z,11.68
2023-03-13T05:55:11.548Z,8.05
2023-03-13T06:00:23.454Z,9.25
2023-03-13T06:05:39.743Z,7.70
2023-03-13T06:10:55.164Z,6.83
2023-03-13T06:16:00.540Z,5.65
2023-03-13T06:21:23.643Z,6.03
2023-03-13T06:26:26.441Z,7.50
2023-03-13T06:31:29.122Z,6.55
2023-03-13T06:36:31.827Z,8.15
2023-03-13T06:41:35.197Z,11.03
2023-03-13T06:46:37.832Z,11.93
2023-03-13T06:51:40.584Z,9.05
2023-03-13T06:56:45.339Z,7.25
2023-03-13T07:01:48.196Z,7.53
2023-03-13T07:06:52.223Z,8.07
2023-03-13T07:11:55.126Z,9.80
2023-03-13T07:16:59.714Z,9.25
2023-03-13T07:22:02.504Z,8.48
2023-03-13T07:27:07.963Z,8.27
2023-03-13T07:32:11.142Z,8.20
2023-03-13T07:37:15.405Z,9.83
2023-03-13T07:42:18.201Z,10.52
2023-03-13T07:47:26.988Z,12.70
2023-03-13T07:52:32.851Z,12.60
2023-03-13T08:02:38.537Z,8.70
2023-03-13T08:07:43.407Z,7.87
2023-03-13T08:12:51.274Z,7.18
2023-03-13T08:17:55.659Z,7.88
2023-03-13T08:22:58.448Z,10.02
2023-03-13T08:28:02.555Z,9.27
2023-03-13T08:33:07.611Z,9.30
2023-03-13T08:38:10.544Z,9.35
2023-03-13T08:43:17.475Z,10.23
2023-03-13T08:48:20.230Z,9.53
2023-03-13T08:53:23.021Z,9.45
2023-03-13T08:58:25.836Z,10.65
2023-03-13T09:03:28.975Z,10.77
2023-03-13T09:08:32.398Z,13.90
2023-03-13T09:13:41.308Z,13.40
2023-03-13T09:18:44.394Z,11.27
2023-03-13T09:23:51.104Z,13.90
2023-03-13T09:28:54.851Z,15.00
2023-03-13T09:34:00.571Z,10.48
2023-03-13T09:39:03.343Z,9.07
2023-03-13T09:44:23.473Z,8.70
2023-03-13T09:49:31.147Z,7.70
2023-03-13T09:54:49.936Z,7.05
2023-03-13T10:00:07.242Z,6.80
2023-03-13T10:05:26.909Z,5.93
2023-03-13T10:10:39.768Z,7.82
2023-03-13T10:16:01.960Z,8.50
2023-03-13T10:21:20.457Z,12.85
2023-03-13T10:26:26.240Z,8.48
2023-03-13T10:31:33.423Z,7.55
2023-03-13T10:36:47.507Z,6.28
2023-03-13T10:41:51.215Z,6.43
2023-03-13T10:47:00.802Z,7.00
2023-03-13T10:52:05.101Z,9.68
2023-03-13T10:57:18.746Z,10.70
2023-03-13T11:02:40.196Z,14.43
2023-03-13T11:07:45.580Z,13.60
2023-03-13T11:12:53.461Z,14.10
2023-03-13T11:18:04.702Z,14.73
2023-03-13T11:23:20.537Z,15.23
2023-03-13T11:28:59.092Z,13.07
2023-03-13T11:34:39.109Z,16.92
2023-03-13T11:39:48.330Z,14.68
2023-03-13T11:45:24.809Z,20.73
2023-03-13T11:50:30.341Z,18.02
2023-03-13T11:55:40.665Z,13.27
2023-03-13T12:01:14.975Z,29.95
2023-03-13T12:06:48.265Z,25.45
2023-03-13T12:12:05.732Z,21.83
2023-03-13T12:17:34.962Z,29.55
2023-03-13T12:22:50.389Z,28.55
2023-03-13T12:28:10.005Z,21.75
2023-03-13T12:33:31.766Z,16.98
2023-03-13T12:38:59.140Z,35.85
2023-03-13T12:44:09.137Z,23.35
2023-03-13T12:49:20.000Z,14.68
2023-03-13T12:54:37.046Z,15.45
2023-03-13T12:59:44.688Z,14.85
2023-03-13T13:04:49.644Z,14.43
2023-03-13T13:10:04.564Z,10.95
2023-03-13T13:15:20.955Z,9.95
2023-03-13T13:20:44.467Z,20.90
2023-03-13T13:25:49.101Z,8.88
2023-03-13T13:30:55.834Z,7.57
2023-03-13T13:36:10.717Z,5.68
2023-03-13T13:41:17.090Z,11.23
2023-03-13T13:46:29.663Z,9.90
2023-03-13T13:51:34.268Z,13.18
2023-03-13T13:56:43.462Z,10.45
2023-03-13T14:01:47.377Z,12.75
2023-03-13T14:06:53.614Z,9.82
2023-03-13T14:11:57.406Z,7.85
2023-03-13T14:17:00.181Z,8.60
2023-03-13T14:22:05.734Z,5.30
2023-03-13T14:27:18.203Z,5.15
2023-03-13T14:32:29.171Z,5.78
2023-03-13T14:37:37.172Z,17.83
2023-03-13T14:42:46.095Z,21.08
2023-03-13T14:47:53.634Z,22.77
2023-03-13T14:53:01.308Z,12.82
2023-03-13T14:58:25.279Z,16.48
2023-03-13T15:03:32.598Z,13.63
2023-03-13T15:08:43.249Z,38.60
2023-03-13T15:13:45.987Z,25.60
2023-03-13T15:18:53.871Z,26.77
2023-03-13T15:24:02.217Z,26.25
2023-03-13T15:29:06.409Z,27.35
2023-03-13T15:34:13.915Z,23.60
2023-03-13T15:39:19.527Z,22.90
2023-03-13T15:44:22.107Z,21.65
2023-03-13T15:49:25.433Z,17.98
2023-03-13T15:54:28.114Z,17.88
2023-03-13T15:59:30.736Z,15.73
2023-03-13T16:04:38.320Z,16.77
2023-03-13T16:09:43.641Z,20.75
2023-03-13T16:14:46.687Z,21.10
2023-03-13T16:19:52.885Z,39.80
2023-03-13T16:24:55.737Z,52.50
2023-03-13T16:29:59.384Z,51.00
2023-03-13T16:35:02.465Z,46.65
2023-03-13T16:45:19.826Z,30.73
2023-03-13T16:50:28.347Z,28.20
2023-03-13T16:55:37.562Z,27.38
2023-03-13T17:00:40.907Z,24.20
2023-03-13T17:05:46.726Z,21.63
2023-03-13T17:10:49.640Z,15.35
2023-03-13T17:15:52.328Z,17.97
2023-03-13T17:20:55.287Z,21.90
2023-03-13T17:25:58.146Z,19.33
2023-03-13T17:31:02.264Z,19.08
2023-03-13T17:41:20.806Z,29.30
2023-03-13T17:46:25.724Z,100.22
2023-03-13T17:51:32.279Z,82.20
2023-03-13T17:56:40.525Z,61.30
2023-03-13T18:01:44.153Z,52.72
2023-03-13T18:06:51.601Z,57.67
2023-03-13T18:11:57.357Z,43.85
2023-03-13T18:17:00.413Z,23.05
2023-03-13T18:22:03.117Z,29.90
2023-03-13T18:27:12.977Z,24.10
2023-03-13T18:32:17.323Z,21.23
2023-03-13T18:37:22.296Z,16.63
2023-03-13T18:42:26.252Z,14.70
2023-03-13T18:47:29.907Z,21.30
2023-03-13T19:02:39.320Z,8.35
2023-03-13T19:07:44.431Z,10.63
2023-03-13T19:12:53.433Z,16.98
2023-03-13T19:17:57.353Z,20.05
2023-03-13T19:23:00.931Z,22.45
2023-03-13T19:28:06.426Z,21.00
2023-03-13T19:33:09.748Z,23.55
2023-03-13T19:38:14.943Z,21.30
2023-03-13T19:43:19.986Z,18.95
2023-03-13T19:48:22.594Z,18.08
2023-03-13T19:53:30.197Z,17.10
2023-03-13T19:58:34.311Z,27.15
2023-03-13T20:03:37.039Z,23.67
2023-03-13T20:08:43.446Z,20.92
2023-03-13T20:13:48.259Z,27.60
2023-03-13T20:18:54.260Z,22.73
2023-03-13T20:23:58.304Z,26.20
2023-03-13T20:29:01.828Z,46.00
2023-03-13T20:34:04.634Z,53.42
2023-03-13T20:39:09.767Z,58.67
2023-03-13T20:44:12.424Z,57.77
2023-03-13T20:49:15.016Z,28.40
2023-03-13T20:54:17.703Z,22.87
2023-03-13T20:59:20.810Z,15.90
2023-03-13T21:04:24.947Z,17.10
2023-03-13T21:09:27.784Z,10.68
2023-03-13T21:14:30.737Z,7.37
2023-03-13T21:19:34.344Z,7.18
2023-03-13T21:24:36.886Z,8.90
2023-03-13T21:29:41.034Z,6.32
2023-03-13T21:34:44.580Z,6.47
2023-03-13T21:39:51.012Z,6.07
2023-03-13T21:44:55.934Z,6.40
2023-03-13T21:50:00.727Z,5.78
2023-03-13T21:55:03.432Z,6.30
2023-03-13T22:00:08.431Z,5.00
2023-03-13T22:05:12.700Z,4.70
2023-03-13T22:10:17.388Z,4.85
2023-03-13T22:15:20.079Z,5.60
2023-03-13T22:20:23.623Z,4.47
2023-03-13T22:30:28.875Z,5.05
2023-03-13T22:35:31.725Z,4.40
2023-03-13T22:40:34.694Z,3.08
2023-03-13T22:45:37.766Z,3.15
2023-03-13T22:50:40.419Z,3.17
2023-03-13T22:55:43.093Z,2.67
2023-03-13T23:00:46.058Z,3.72
2023-03-13T23:05:49.114Z,3.67
2023-03-13T23:10:52.329Z,3.28
2023-03-13T23:15:56.075Z,3.67
2023-03-13T23:21:06.743Z,4.43
2023-03-13T23:26:12.733Z,5.13
2023-03-13T23:31:18.089Z,4.63
2023-03-13T23:36:20.746Z,4.38
2023-03-13T23:41:23.595Z,3.90
2023-03-13T23:46:27.160Z,4.07
2023-03-13T23:56:32.797Z,4.57
